Terminal Aerodrome Forecast
Issued by NWS

Home | Current Version | Previous Version | Text Only | Print | Product List | Glossary On
Versions: 1 2 3 4 5 6 7 8 9 10 11 12 13 14 15 16 17 18
000
FTUS43 KMKX 201756 AAA
TAFENW
TAF AMD
KENW 201756Z 2018/2118 14012KT 5SM HZ SCT035
     FM210300 17014KT 5SM BR VCSH OVC200
     FM210400 18012KT 6SM -SHRA OVC090
     FM210700 21009KT 3SM -SHRA BR OVC015
     FM210900 22007KT 1 1/2SM BR VCSH OVC008
     FM211200 25007KT 2SM BR BKN008
     FM211400 28007KT 5SM BR SCT010
     FM211500 28007KT P6SM SCT010=

USA.gov is the U.S. government's official web portal to all federal, state and local government web resources and services.